sensor_id;sensor_type;location;lat;lon;timestamp;P1;durP1;ratioP1;P2;durP2;ratioP2
7929;SDS011;4010;42.698;23.124;2024-02-21T00:01:43;4.73;;;3.43;;
7929;SDS011;4010;42.698;23.124;2024-02-21T00:04:10;4.63;;;3.50;;
7929;SDS011;4010;42.698;23.124;2024-02-21T00:06:38;4.33;;;3.20;;
7929;SDS011;4010;42.698;23.124;2024-02-21T00:09:05;4.27;;;3.70;;
7929;SDS011;4010;42.698;23.124;2024-02-21T00:11:32;3.43;;;3.00;;
7929;SDS011;4010;42.698;23.124;2024-02-21T00:13:58;3.20;;;2.90;;
7929;SDS011;4010;42.698;23.124;2024-02-21T00:16:25;4.10;;;3.23;;
7929;SDS011;4010;42.698;23.124;2024-02-21T00:18:52;5.43;;;4.10;;
7929;SDS011;4010;42.698;23.124;2024-02-21T00:21:19;3.67;;;3.10;;
7929;SDS011;4010;42.698;23.124;2024-02-21T00:23:47;4.47;;;3.03;;
7929;SDS011;4010;42.698;23.124;2024-02-21T00:26:15;3.00;;;2.60;;
7929;SDS011;4010;42.698;23.124;2024-02-21T00:28:42;3.20;;;2.90;;
7929;SDS011;4010;42.698;23.124;2024-02-21T00:31:10;3.80;;;2.90;;
7929;SDS011;4010;42.698;23.124;2024-02-21T00:33:37;3.90;;;3.13;;
7929;SDS011;4010;42.698;23.124;2024-02-21T00:36:04;4.70;;;3.20;;
7929;SDS011;4010;42.698;23.124;2024-02-21T00:38:30;3.60;;;2.80;;
7929;SDS011;4010;42.698;23.124;2024-02-21T00:40:58;3.27;;;2.73;;
7929;SDS011;4010;42.698;23.124;2024-02-21T00:43:25;4.57;;;2.67;;
7929;SDS011;4010;42.698;23.124;2024-02-21T00:45:52;3.07;;;2.77;;
7929;SDS011;4010;42.698;23.124;2024-02-21T00:48:19;3.27;;;2.60;;
7929;SDS011;4010;42.698;23.124;2024-02-21T00:50:45;3.50;;;3.20;;
7929;SDS011;4010;42.698;23.124;2024-02-21T00:53:12;9.13;;;4.47;;
7929;SDS011;4010;42.698;23.124;2024-02-21T00:55:39;5.37;;;3.43;;
7929;SDS011;4010;42.698;23.124;2024-02-21T00:58:07;3.43;;;2.83;;
7929;SDS011;4010;42.698;23.124;2024-02-21T01:00:34;3.93;;;2.80;;
7929;SDS011;4010;42.698;23.124;2024-02-21T01:03:00;3.77;;;2.80;;
7929;SDS011;4010;42.698;23.124;2024-02-21T01:05:28;4.60;;;2.93;;
7929;SDS011;4010;42.698;23.124;2024-02-21T01:07:55;2.93;;;2.50;;
7929;SDS011;4010;42.698;23.124;2024-02-21T01:10:22;3.03;;;2.67;;
7929;SDS011;4010;42.698;23.124;2024-02-21T01:12:49;3.67;;;2.77;;
7929;SDS011;4010;42.698;23.124;2024-02-21T01:15:17;3.30;;;2.60;;
7929;SDS011;4010;42.698;23.124;2024-02-21T01:17:43;4.43;;;3.27;;
7929;SDS011;4010;42.698;23.124;2024-02-21T01:20:10;3.63;;;3.30;;
7929;SDS011;4010;42.698;23.124;2024-02-21T01:22:37;4.07;;;3.13;;
7929;SDS011;4010;42.698;23.124;2024-02-21T01:25:04;5.27;;;3.40;;
7929;SDS011;4010;42.698;23.124;2024-02-21T01:27:32;3.40;;;2.97;;
7929;SDS011;4010;42.698;23.124;2024-02-21T01:29:58;5.83;;;3.70;;
7929;SDS011;4010;42.698;23.124;2024-02-21T01:32:26;3.97;;;3.57;;
7929;SDS011;4010;42.698;23.124;2024-02-21T01:34:53;4.90;;;3.60;;
7929;SDS011;4010;42.698;23.124;2024-02-21T01:37:20;4.63;;;3.87;;
7929;SDS011;4010;42.698;23.124;2024-02-21T01:39:46;5.63;;;4.20;;
7929;SDS011;4010;42.698;23.124;2024-02-21T01:42:14;5.70;;;4.37;;
7929;SDS011;4010;42.698;23.124;2024-02-21T01:44:41;6.60;;;4.67;;
7929;SDS011;4010;42.698;23.124;2024-02-21T01:47:07;6.67;;;5.33;;
7929;SDS011;4010;42.698;23.124;2024-02-21T01:49:36;7.20;;;5.33;;
7929;SDS011;4010;42.698;23.124;2024-02-21T01:52:03;5.10;;;4.60;;
7929;SDS011;4010;42.698;23.124;2024-02-21T01:54:30;6.10;;;5.00;;
7929;SDS011;4010;42.698;23.124;2024-02-21T01:56:57;6.87;;;4.63;;
7929;SDS011;4010;42.698;23.124;2024-02-21T01:59:25;7.50;;;5.63;;
7929;SDS011;4010;42.698;23.124;2024-02-21T02:01:51;8.20;;;4.90;;
7929;SDS011;4010;42.698;23.124;2024-02-21T02:04:18;6.73;;;5.63;;
7929;SDS011;4010;42.698;23.124;2024-02-21T02:06:47;7.70;;;5.87;;
7929;SDS011;4010;42.698;23.124;2024-02-21T02:09:15;6.13;;;5.23;;
7929;SDS011;4010;42.698;23.124;2024-02-21T02:11:42;8.27;;;5.70;;
7929;SDS011;4010;42.698;23.124;2024-02-21T02:14:09;7.97;;;6.17;;
7929;SDS011;4010;42.698;23.124;2024-02-21T02:16:36;8.07;;;5.87;;
7929;SDS011;4010;42.698;23.124;2024-02-21T02:19:02;7.90;;;5.83;;
7929;SDS011;4010;42.698;23.124;2024-02-21T02:21:29;7.97;;;6.20;;
7929;SDS011;4010;42.698;23.124;2024-02-21T02:24:01;7.97;;;5.97;;
7929;SDS011;4010;42.698;23.124;2024-02-21T02:26:28;7.47;;;6.00;;
7929;SDS011;4010;42.698;23.124;2024-02-21T02:28:54;8.67;;;6.83;;
7929;SDS011;4010;42.698;23.124;2024-02-21T02:31:21;9.27;;;6.47;;
7929;SDS011;4010;42.698;23.124;2024-02-21T02:33:48;7.10;;;5.33;;
7929;SDS011;4010;42.698;23.124;2024-02-21T02:36:15;8.60;;;6.10;;
7929;SDS011;4010;42.698;23.124;2024-02-21T02:38:42;7.50;;;5.13;;
7929;SDS011;4010;42.698;23.124;2024-02-21T02:41:10;7.23;;;5.60;;
7929;SDS011;4010;42.698;23.124;2024-02-21T02:43:37;6.70;;;5.30;;
7929;SDS011;4010;42.698;23.124;2024-02-21T02:46:04;7.83;;;5.70;;
7929;SDS011;4010;42.698;23.124;2024-02-21T02:48:30;9.33;;;6.03;;
7929;SDS011;4010;42.698;23.124;2024-02-21T02:50:57;6.90;;;5.10;;
7929;SDS011;4010;42.698;23.124;2024-02-21T02:53:24;7.03;;;5.23;;
7929;SDS011;4010;42.698;23.124;2024-02-21T02:55:51;8.60;;;5.57;;
7929;SDS011;4010;42.698;23.124;2024-02-21T02:58:19;7.87;;;5.80;;
7929;SDS011;4010;42.698;23.124;2024-02-21T03:00:45;7.70;;;6.13;;
7929;SDS011;4010;42.698;23.124;2024-02-21T03:03:12;7.00;;;5.13;;
7929;SDS011;4010;42.698;23.124;2024-02-21T03:05:39;7.93;;;5.97;;
7929;SDS011;4010;42.698;23.124;2024-02-21T03:08:05;8.10;;;6.37;;
7929;SDS011;4010;42.698;23.124;2024-02-21T03:10:33;8.37;;;5.70;;
7929;SDS011;4010;42.698;23.124;2024-02-21T03:13:00;7.23;;;5.43;;
7929;SDS011;4010;42.698;23.124;2024-02-21T03:15:28;9.63;;;6.57;;
7929;SDS011;4010;42.698;23.124;2024-02-21T03:17:55;9.33;;;6.77;;
7929;SDS011;4010;42.698;23.124;2024-02-21T03:20:21;7.30;;;6.10;;
7929;SDS011;4010;42.698;23.124;2024-02-21T03:22:48;10.77;;;6.77;;
7929;SDS011;4010;42.698;23.124;2024-02-21T03:25:15;9.33;;;6.60;;
7929;SDS011;4010;42.698;23.124;2024-02-21T03:27:42;8.03;;;6.20;;
7929;SDS011;4010;42.698;23.124;2024-02-21T03:30:09;8.40;;;5.93;;
7929;SDS011;4010;42.698;23.124;2024-02-21T03:32:37;12.87;;;8.40;;
7929;SDS011;4010;42.698;23.124;2024-02-21T03:35:04;10.20;;;6.60;;
7929;SDS011;4010;42.698;23.124;2024-02-21T03:37:31;8.83;;;6.43;;
7929;SDS011;4010;42.698;23.124;2024-02-21T03:39:58;11.23;;;8.87;;
7929;SDS011;4010;42.698;23.124;2024-02-21T03:42:25;11.60;;;7.60;;
7929;SDS011;4010;42.698;23.124;2024-02-21T03:44:54;8.03;;;6.00;;
7929;SDS011;4010;42.698;23.124;2024-02-21T03:47:21;8.20;;;6.10;;
7929;SDS011;4010;42.698;23.124;2024-02-21T03:49:49;8.00;;;6.23;;
7929;SDS011;4010;42.698;23.124;2024-02-21T03:52:16;7.97;;;6.00;;
7929;SDS011;4010;42.698;23.124;2024-02-21T03:54:43;7.73;;;5.63;;
7929;SDS011;4010;42.698;23.124;2024-02-21T03:57:09;10.00;;;6.00;;
7929;SDS011;4010;42.698;23.124;2024-02-21T03:59:36;19.17;;;10.60;;
7929;SDS011;4010;42.698;23.124;2024-02-21T04:02:04;8.80;;;6.80;;
7929;SDS011;4010;42.698;23.124;2024-02-21T04:04:33;7.33;;;5.90;;
7929;SDS011;4010;42.698;23.124;2024-02-21T04:07:01;10.30;;;7.10;;
7929;SDS011;4010;42.698;23.124;2024-02-21T04:09:31;9.30;;;6.43;;
7929;SDS011;4010;42.698;23.124;2024-02-21T04:11:58;8.20;;;6.07;;
7929;SDS011;4010;42.698;23.124;2024-02-21T04:14:25;10.00;;;6.93;;
7929;SDS011;4010;42.698;23.124;2024-02-21T04:16:51;8.63;;;6.60;;
7929;SDS011;4010;42.698;23.124;2024-02-21T04:19:18;10.80;;;6.30;;
7929;SDS011;4010;42.698;23.124;2024-02-21T04:21:45;11.23;;;7.30;;
7929;SDS011;4010;42.698;23.124;2024-02-21T04:24:13;11.63;;;6.83;;
7929;SDS011;4010;42.698;23.124;2024-02-21T04:26:39;8.30;;;6.90;;
7929;SDS011;4010;42.698;23.124;2024-02-21T04:29:06;10.17;;;7.10;;
7929;SDS011;4010;42.698;23.124;2024-02-21T04:31:33;7.47;;;5.70;;
7929;SDS011;4010;42.698;23.124;2024-02-21T04:34:00;9.53;;;6.53;;
7929;SDS011;4010;42.698;23.124;2024-02-21T04:36:28;9.60;;;7.23;;
7929;SDS011;4010;42.698;23.124;2024-02-21T04:38:54;11.63;;;7.90;;
7929;SDS011;4010;42.698;23.124;2024-02-21T04:41:22;10.23;;;7.37;;
7929;SDS011;4010;42.698;23.124;2024-02-21T04:43:49;9.53;;;6.80;;
7929;SDS011;4010;42.698;23.124;2024-02-21T04:46:16;11.90;;;7.60;;
7929;SDS011;4010;42.698;23.124;2024-02-21T04:48:42;9.93;;;7.47;;
7929;SDS011;4010;42.698;23.124;2024-02-21T04:51:09;11.23;;;7.93;;
7929;SDS011;4010;42.698;23.124;2024-02-21T04:53:37;14.03;;;8.40;;
7929;SDS011;4010;42.698;23.124;2024-02-21T04:56:04;10.53;;;7.67;;
7929;SDS011;4010;42.698;23.124;2024-02-21T04:58:33;13.93;;;8.27;;
7929;SDS011;4010;42.698;23.124;2024-02-21T05:01:03;11.57;;;8.47;;
7929;SDS011;4010;42.698;23.124;2024-02-21T05:03:30;9.77;;;7.17;;
7929;SDS011;4010;42.698;23.124;2024-02-21T05:05:56;9.63;;;7.27;;
7929;SDS011;4010;42.698;23.124;2024-02-21T05:08:23;9.40;;;6.63;;
7929;SDS011;4010;42.698;23.124;2024-02-21T05:10:50;9.57;;;7.03;;
7929;SDS011;4010;42.698;23.124;2024-02-21T05:13:16;10.37;;;7.33;;
7929;SDS011;4010;42.698;23.124;2024-02-21T05:15:45;9.57;;;7.63;;
7929;SDS011;4010;42.698;23.124;2024-02-21T05:18:11;8.37;;;6.60;;
7929;SDS011;4010;42.698;23.124;2024-02-21T05:20:38;8.37;;;5.73;;
7929;SDS011;4010;42.698;23.124;2024-02-21T05:23:05;8.50;;;6.23;;
7929;SDS011;4010;42.698;23.124;2024-02-21T05:25:31;6.70;;;5.53;;
7929;SDS011;4010;42.698;23.124;2024-02-21T05:27:58;8.83;;;5.83;;
7929;SDS011;4010;42.698;23.124;2024-02-21T05:30:27;8.00;;;6.23;;
7929;SDS011;4010;42.698;23.124;2024-02-21T05:32:55;7.97;;;5.47;;
7929;SDS011;4010;42.698;23.124;2024-02-21T05:35:24;8.73;;;6.17;;
7929;SDS011;4010;42.698;23.124;2024-02-21T05:37:52;8.33;;;6.07;;
7929;SDS011;4010;42.698;23.124;2024-02-21T05:40:19;10.67;;;6.80;;
7929;SDS011;4010;42.698;23.124;2024-02-21T05:42:45;10.97;;;7.73;;
7929;SDS011;4010;42.698;23.124;2024-02-21T05:45:12;11.87;;;8.13;;
7929;SDS011;4010;42.698;23.124;2024-02-21T05:47:40;13.57;;;8.33;;
7929;SDS011;4010;42.698;23.124;2024-02-21T05:50:09;9.60;;;7.13;;
7929;SDS011;4010;42.698;23.124;2024-02-21T05:52:36;10.40;;;7.93;;
7929;SDS011;4010;42.698;23.124;2024-02-21T05:55:03;11.13;;;7.80;;
7929;SDS011;4010;42.698;23.124;2024-02-21T05:57:30;10.53;;;7.60;;
7929;SDS011;4010;42.698;23.124;2024-02-21T05:59:57;11.33;;;8.37;;
7929;SDS011;4010;42.698;23.124;2024-02-21T06:02:23;9.63;;;7.53;;
7929;SDS011;4010;42.698;23.124;2024-02-21T06:04:50;9.87;;;7.53;;
7929;SDS011;4010;42.698;23.124;2024-02-21T06:07:18;10.43;;;7.53;;
7929;SDS011;4010;42.698;23.124;2024-02-21T06:09:45;11.13;;;7.97;;
7929;SDS011;4010;42.698;23.124;2024-02-21T06:12:11;10.60;;;8.13;;
7929;SDS011;4010;42.698;23.124;2024-02-21T06:14:38;11.17;;;8.63;;
7929;SDS011;4010;42.698;23.124;2024-02-21T06:17:05;10.13;;;7.80;;
7929;SDS011;4010;42.698;23.124;2024-02-21T06:19:32;10.17;;;7.73;;
7929;SDS011;4010;42.698;23.124;2024-02-21T06:21:58;11.43;;;8.23;;
7929;SDS011;4010;42.698;23.124;2024-02-21T06:24:26;11.63;;;8.07;;
7929;SDS011;4010;42.698;23.124;2024-02-21T06:26:53;10.37;;;7.60;;
7929;SDS011;4010;42.698;23.124;2024-02-21T06:29:20;10.07;;;7.40;;
7929;SDS011;4010;42.698;23.124;2024-02-21T06:31:47;10.80;;;7.83;;
7929;SDS011;4010;42.698;23.124;2024-02-21T06:34:13;10.43;;;7.83;;
7929;SDS011;4010;42.698;23.124;2024-02-21T06:36:40;9.17;;;7.40;;
7929;SDS011;4010;42.698;23.124;2024-02-21T06:39:07;10.20;;;7.60;;
7929;SDS011;4010;42.698;23.124;2024-02-21T06:41:35;8.90;;;7.17;;
7929;SDS011;4010;42.698;23.124;2024-02-21T06:44:02;10.87;;;7.20;;
7929;SDS011;4010;42.698;23.124;2024-02-21T06:46:29;9.77;;;7.43;;
7929;SDS011;4010;42.698;23.124;2024-02-21T06:48:57;13.37;;;8.07;;
7929;SDS011;4010;42.698;23.124;2024-02-21T06:51:25;11.00;;;8.13;;
7929;SDS011;4010;42.698;23.124;2024-02-21T06:53:52;14.17;;;9.30;;
7929;SDS011;4010;42.698;23.124;2024-02-21T06:56:19;10.50;;;8.13;;
7929;SDS011;4010;42.698;23.124;2024-02-21T06:58:47;12.00;;;8.80;;
7929;SDS011;4010;42.698;23.124;2024-02-21T07:01:14;10.23;;;8.03;;
7929;SDS011;4010;42.698;23.124;2024-02-21T07:03:41;10.97;;;8.47;;
7929;SDS011;4010;42.698;23.124;2024-02-21T07:06:07;11.77;;;8.67;;
7929;SDS011;4010;42.698;23.124;2024-02-21T07:08:34;9.17;;;7.30;;
7929;SDS011;4010;42.698;23.124;2024-02-21T07:11:01;9.77;;;7.07;;
7929;SDS011;4010;42.698;23.124;2024-02-21T07:13:27;10.40;;;7.70;;
7929;SDS011;4010;42.698;23.124;2024-02-21T07:15:55;11.63;;;8.37;;
7929;SDS011;4010;42.698;23.124;2024-02-21T07:18:22;10.87;;;8.50;;
7929;SDS011;4010;42.698;23.124;2024-02-21T07:20:50;12.07;;;9.07;;
7929;SDS011;4010;42.698;23.124;2024-02-21T07:23:17;23.63;;;15.60;;
7929;SDS011;4010;42.698;23.124;2024-02-21T07:25:43;16.80;;;11.73;;
7929;SDS011;4010;42.698;23.124;2024-02-21T07:28:10;17.17;;;11.20;;
7929;SDS011;4010;42.698;23.124;2024-02-21T07:30:38;18.50;;;12.53;;
7929;SDS011;4010;42.698;23.124;2024-02-21T07:33:06;17.13;;;12.70;;
7929;SDS011;4010;42.698;23.124;2024-02-21T07:35:33;15.73;;;10.23;;
7929;SDS011;4010;42.698;23.124;2024-02-21T07:38:02;10.80;;;8.33;;
7929;SDS011;4010;42.698;23.124;2024-02-21T07:40:30;10.33;;;7.77;;
7929;SDS011;4010;42.698;23.124;2024-02-21T07:42:56;10.47;;;7.10;;
7929;SDS011;4010;42.698;23.124;2024-02-21T07:45:23;9.70;;;8.10;;
7929;SDS011;4010;42.698;23.124;2024-02-21T07:47:50;8.00;;;6.33;;
7929;SDS011;4010;42.698;23.124;2024-02-21T07:50:18;10.03;;;7.17;;
7929;SDS011;4010;42.698;23.124;2024-02-21T07:52:45;9.03;;;7.03;;
7929;SDS011;4010;42.698;23.124;2024-02-21T07:55:11;7.90;;;6.40;;
7929;SDS011;4010;42.698;23.124;2024-02-21T07:57:38;10.20;;;7.53;;
7929;SDS011;4010;42.698;23.124;2024-02-21T08:00:05;10.63;;;7.37;;
7929;SDS011;4010;42.698;23.124;2024-02-21T08:02:34;11.30;;;8.43;;
7929;SDS011;4010;42.698;23.124;2024-02-21T08:05:02;11.37;;;7.57;;
7929;SDS011;4010;42.698;23.124;2024-02-21T08:07:31;9.23;;;7.17;;
7929;SDS011;4010;42.698;23.124;2024-02-21T08:09:57;11.10;;;7.77;;
7929;SDS011;4010;42.698;23.124;2024-02-21T08:12:24;10.30;;;7.77;;
7929;SDS011;4010;42.698;23.124;2024-02-21T08:14:52;11.17;;;8.50;;
7929;SDS011;4010;42.698;23.124;2024-02-21T08:17:18;8.93;;;7.40;;
7929;SDS011;4010;42.698;23.124;2024-02-21T08:19:45;7.67;;;6.00;;
7929;SDS011;4010;42.698;23.124;2024-02-21T08:22:14;10.77;;;7.87;;
7929;SDS011;4010;42.698;23.124;2024-02-21T08:24:42;11.07;;;7.97;;
7929;SDS011;4010;42.698;23.124;2024-02-21T08:27:09;10.03;;;8.23;;
7929;SDS011;4010;42.698;23.124;2024-02-21T08:29:36;8.37;;;6.70;;
7929;SDS011;4010;42.698;23.124;2024-02-21T08:32:03;9.10;;;7.27;;
7929;SDS011;4010;42.698;23.124;2024-02-21T08:34:30;8.60;;;7.03;;
7929;SDS011;4010;42.698;23.124;2024-02-21T08:36:59;8.80;;;7.40;;
7929;SDS011;4010;42.698;23.124;2024-02-21T08:39:26;8.57;;;7.40;;
7929;SDS011;4010;42.698;23.124;2024-02-21T08:41:55;8.67;;;6.57;;
7929;SDS011;4010;42.698;23.124;2024-02-21T08:44:22;9.13;;;7.40;;
7929;SDS011;4010;42.698;23.124;2024-02-21T08:46:49;7.47;;;6.57;;
7929;SDS011;4010;42.698;23.124;2024-02-21T08:49:15;7.47;;;6.33;;
7929;SDS011;4010;42.698;23.124;2024-02-21T08:51:42;8.93;;;7.00;;
7929;SDS011;4010;42.698;23.124;2024-02-21T08:54:09;9.37;;;7.03;;
7929;SDS011;4010;42.698;23.124;2024-02-21T08:56:36;8.63;;;7.37;;
7929;SDS011;4010;42.698;23.124;2024-02-21T08:59:04;8.03;;;6.50;;
7929;SDS011;4010;42.698;23.124;2024-02-21T09:01:31;8.47;;;6.93;;
7929;SDS011;4010;42.698;23.124;2024-02-21T09:03:59;8.70;;;6.70;;
7929;SDS011;4010;42.698;23.124;2024-02-21T09:06:26;8.70;;;6.93;;
7929;SDS011;4010;42.698;23.124;2024-02-21T09:08:53;7.40;;;6.57;;
7929;SDS011;4010;42.698;23.124;2024-02-21T09:11:22;7.17;;;5.87;;
7929;SDS011;4010;42.698;23.124;2024-02-21T09:13:48;7.70;;;6.90;;
7929;SDS011;4010;42.698;23.124;2024-02-21T09:16:17;7.50;;;6.57;;
7929;SDS011;4010;42.698;23.124;2024-02-21T09:18:43;10.07;;;7.37;;
7929;SDS011;4010;42.698;23.124;2024-02-21T09:21:11;8.70;;;6.27;;
7929;SDS011;4010;42.698;23.124;2024-02-21T09:23:38;8.73;;;7.13;;
7929;SDS011;4010;42.698;23.124;2024-02-21T09:26:05;8.40;;;6.53;;
7929;SDS011;4010;42.698;23.124;2024-02-21T09:28:31;9.83;;;7.80;;
7929;SDS011;4010;42.698;23.124;2024-02-21T09:30:59;8.00;;;6.70;;
7929;SDS011;4010;42.698;23.124;2024-02-21T09:33:28;8.47;;;6.93;;
7929;SDS011;4010;42.698;23.124;2024-02-21T09:35:55;7.50;;;6.37;;
7929;SDS011;4010;42.698;23.124;2024-02-21T09:38:21;8.03;;;6.97;;
7929;SDS011;4010;42.698;23.124;2024-02-21T09:40:51;9.20;;;7.07;;
7929;SDS011;4010;42.698;23.124;2024-02-21T09:43:24;7.77;;;6.13;;
7929;SDS011;4010;42.698;23.124;2024-02-21T09:45:52;9.50;;;7.23;;
7929;SDS011;4010;42.698;23.124;2024-02-21T09:48:35;8.73;;;6.87;;
7929;SDS011;4010;42.698;23.124;2024-02-21T09:51:13;7.60;;;6.03;;
7929;SDS011;4010;42.698;23.124;2024-02-21T09:53:41;6.87;;;5.83;;
7929;SDS011;4010;42.698;23.124;2024-02-21T09:56:09;8.27;;;6.60;;
7929;SDS011;4010;42.698;23.124;2024-02-21T09:58:36;8.20;;;6.60;;
7929;SDS011;4010;42.698;23.124;2024-02-21T10:01:04;7.80;;;6.03;;
7929;SDS011;4010;42.698;23.124;2024-02-21T10:03:31;7.23;;;6.10;;
7929;SDS011;4010;42.698;23.124;2024-02-21T10:06:00;8.13;;;6.63;;
7929;SDS011;4010;42.698;23.124;2024-02-21T10:08:27;7.37;;;6.17;;
7929;SDS011;4010;42.698;23.124;2024-02-21T10:10:54;6.90;;;5.87;;
7929;SDS011;4010;42.698;23.124;2024-02-21T10:13:24;6.27;;;5.67;;
7929;SDS011;4010;42.698;23.124;2024-02-21T10:16:05;9.27;;;7.67;;
7929;SDS011;4010;42.698;23.124;2024-02-21T10:18:37;7.40;;;6.20;;
7929;SDS011;4010;42.698;23.124;2024-02-21T10:21:04;7.20;;;6.47;;
7929;SDS011;4010;42.698;23.124;2024-02-21T10:23:44;6.80;;;5.83;;
7929;SDS011;4010;42.698;23.124;2024-02-21T10:26:12;6.47;;;5.47;;
7929;SDS011;4010;42.698;23.124;2024-02-21T10:28:39;6.83;;;5.97;;
7929;SDS011;4010;42.698;23.124;2024-02-21T10:31:07;5.43;;;4.90;;
7929;SDS011;4010;42.698;23.124;2024-02-21T10:33:36;5.97;;;5.37;;
7929;SDS011;4010;42.698;23.124;2024-02-21T10:36:07;5.20;;;4.60;;
7929;SDS011;4010;42.698;23.124;2024-02-21T10:38:35;6.43;;;4.93;;
7929;SDS011;4010;42.698;23.124;2024-02-21T10:41:03;5.37;;;4.87;;
7929;SDS011;4010;42.698;23.124;2024-02-21T10:43:32;5.63;;;5.03;;
7929;SDS011;4010;42.698;23.124;2024-02-21T10:46:04;4.50;;;4.10;;
7929;SDS011;4010;42.698;23.124;2024-02-21T10:48:33;4.67;;;3.90;;
7929;SDS011;4010;42.698;23.124;2024-02-21T10:51:08;4.40;;;4.00;;
7929;SDS011;4010;42.698;23.124;2024-02-21T10:53:42;3.90;;;3.50;;
7929;SDS011;4010;42.698;23.124;2024-02-21T10:56:15;4.00;;;3.70;;
7929;SDS011;4010;42.698;23.124;2024-02-21T10:58:54;3.70;;;3.33;;
7929;SDS011;4010;42.698;23.124;2024-02-21T11:01:23;4.13;;;3.73;;
7929;SDS011;4010;42.698;23.124;2024-02-21T11:03:54;4.80;;;4.30;;
7929;SDS011;4010;42.698;23.124;2024-02-21T11:06:22;3.67;;;3.30;;
7929;SDS011;4010;42.698;23.124;2024-02-21T11:09:00;6.20;;;3.70;;
7929;SDS011;4010;42.698;23.124;2024-02-21T11:11:29;4.50;;;3.60;;
7929;SDS011;4010;42.698;23.124;2024-02-21T11:14:05;3.93;;;3.23;;
7929;SDS011;4010;42.698;23.124;2024-02-21T11:16:36;3.83;;;3.40;;
7929;SDS011;4010;42.698;23.124;2024-02-21T11:19:08;4.73;;;3.37;;
7929;SDS011;4010;42.698;23.124;2024-02-21T11:21:36;3.77;;;3.00;;
7929;SDS011;4010;42.698;23.124;2024-02-21T11:24:04;5.40;;;3.87;;
7929;SDS011;4010;42.698;23.124;2024-02-21T11:26:31;4.60;;;3.63;;
7929;SDS011;4010;42.698;23.124;2024-02-21T11:28:59;4.43;;;3.30;;
7929;SDS011;4010;42.698;23.124;2024-02-21T11:31:26;3.47;;;3.10;;
7929;SDS011;4010;42.698;23.124;2024-02-21T11:33:53;4.07;;;3.40;;
7929;SDS011;4010;42.698;23.124;2024-02-21T11:36:26;4.47;;;4.07;;
7929;SDS011;4010;42.698;23.124;2024-02-21T11:38:53;4.23;;;3.83;;
7929;SDS011;4010;42.698;23.124;2024-02-21T11:41:20;4.93;;;4.43;;
7929;SDS011;4010;42.698;23.124;2024-02-21T11:43:48;5.40;;;4.50;;
7929;SDS011;4010;42.698;23.124;2024-02-21T11:46:15;5.23;;;4.73;;
7929;SDS011;4010;42.698;23.124;2024-02-21T11:48:42;5.90;;;5.30;;
7929;SDS011;4010;42.698;23.124;2024-02-21T11:51:09;6.17;;;5.53;;
7929;SDS011;4010;42.698;23.124;2024-02-21T11:53:37;6.10;;;5.37;;
7929;SDS011;4010;42.698;23.124;2024-02-21T11:56:04;6.93;;;6.23;;
7929;SDS011;4010;42.698;23.124;2024-02-21T11:58:31;6.57;;;4.70;;
7929;SDS011;4010;42.698;23.124;2024-02-21T12:00:59;4.43;;;4.00;;
7929;SDS011;4010;42.698;23.124;2024-02-21T12:03:28;4.07;;;3.63;;
7929;SDS011;4010;42.698;23.124;2024-02-21T12:05:54;5.93;;;4.13;;
7929;SDS011;4010;42.698;23.124;2024-02-21T12:08:23;10.53;;;5.63;;
7929;SDS011;4010;42.698;23.124;2024-02-21T12:10:51;4.97;;;4.20;;
7929;SDS011;4010;42.698;23.124;2024-02-21T12:13:18;5.00;;;4.03;;
7929;SDS011;4010;42.698;23.124;2024-02-21T12:15:49;4.20;;;3.80;;
7929;SDS011;4010;42.698;23.124;2024-02-21T12:18:15;5.93;;;4.80;;
7929;SDS011;4010;42.698;23.124;2024-02-21T12:20:42;4.23;;;3.83;;
7929;SDS011;4010;42.698;23.124;2024-02-21T12:23:11;6.10;;;5.27;;
7929;SDS011;4010;42.698;23.124;2024-02-21T12:25:38;5.33;;;4.30;;
7929;SDS011;4010;42.698;23.124;2024-02-21T12:28:06;5.33;;;3.90;;
7929;SDS011;4010;42.698;23.124;2024-02-21T12:30:33;3.67;;;3.30;;
7929;SDS011;4010;42.698;23.124;2024-02-21T12:33:03;4.90;;;3.77;;
7929;SDS011;4010;42.698;23.124;2024-02-21T12:35:30;4.47;;;3.60;;
7929;SDS011;4010;42.698;23.124;2024-02-21T12:37:58;4.50;;;3.20;;
7929;SDS011;4010;42.698;23.124;2024-02-21T12:40:25;4.17;;;3.43;;
7929;SDS011;4010;42.698;23.124;2024-02-21T12:42:57;4.30;;;3.83;;
7929;SDS011;4010;42.698;23.124;2024-02-21T12:45:25;5.43;;;3.90;;
7929;SDS011;4010;42.698;23.124;2024-02-21T12:47:51;6.27;;;4.33;;
7929;SDS011;4010;42.698;23.124;2024-02-21T12:50:18;6.03;;;4.77;;
7929;SDS011;4010;42.698;23.124;2024-02-21T12:52:45;4.90;;;4.03;;
7929;SDS011;4010;42.698;23.124;2024-02-21T12:55:12;4.37;;;3.57;;
7929;SDS011;4010;42.698;23.124;2024-02-21T12:57:39;5.50;;;4.40;;
7929;SDS011;4010;42.698;23.124;2024-02-21T13:00:06;4.83;;;3.80;;
7929;SDS011;4010;42.698;23.124;2024-02-21T13:02:35;5.20;;;3.47;;
7929;SDS011;4010;42.698;23.124;2024-02-21T13:05:02;3.67;;;2.93;;
7929;SDS011;4010;42.698;23.124;2024-02-21T13:07:29;5.03;;;3.83;;
7929;SDS011;4010;42.698;23.124;2024-02-21T13:09:57;4.47;;;3.80;;
7929;SDS011;4010;42.698;23.124;2024-02-21T13:12:24;4.43;;;3.43;;
7929;SDS011;4010;42.698;23.124;2024-02-21T13:14:52;3.47;;;3.17;;
7929;SDS011;4010;42.698;23.124;2024-02-21T13:17:19;7.83;;;5.93;;
7929;SDS011;4010;42.698;23.124;2024-02-21T13:19:48;4.63;;;3.50;;
7929;SDS011;4010;42.698;23.124;2024-02-21T13:22:15;5.50;;;5.00;;
7929;SDS011;4010;42.698;23.124;2024-02-21T13:24:42;3.33;;;2.83;;
7929;SDS011;4010;42.698;23.124;2024-02-21T13:27:08;5.93;;;4.37;;
7929;SDS011;4010;42.698;23.124;2024-02-21T13:29:35;3.93;;;2.93;;
7929;SDS011;4010;42.698;23.124;2024-02-21T13:32:02;4.07;;;3.30;;
7929;SDS011;4010;42.698;23.124;2024-02-21T13:34:31;3.13;;;2.83;;
7929;SDS011;4010;42.698;23.124;2024-02-21T13:36:59;3.60;;;3.30;;
7929;SDS011;4010;42.698;23.124;2024-02-21T13:39:25;3.60;;;3.30;;
7929;SDS011;4010;42.698;23.124;2024-02-21T13:41:52;4.37;;;3.27;;
7929;SDS011;4010;42.698;23.124;2024-02-21T13:44:19;4.80;;;3.83;;
7929;SDS011;4010;42.698;23.124;2024-02-21T13:46:46;4.27;;;3.33;;
7929;SDS011;4010;42.698;23.124;2024-02-21T13:49:12;5.03;;;3.77;;
7929;SDS011;4010;42.698;23.124;2024-02-21T13:51:39;4.63;;;3.80;;
7929;SDS011;4010;42.698;23.124;2024-02-21T13:54:09;4.27;;;3.67;;
7929;SDS011;4010;42.698;23.124;2024-02-21T13:56:36;4.20;;;3.47;;
7929;SDS011;4010;42.698;23.124;2024-02-21T13:59:03;5.03;;;3.97;;
7929;SDS011;4010;42.698;23.124;2024-02-21T14:01:30;5.50;;;3.43;;
7929;SDS011;4010;42.698;23.124;2024-02-21T14:03:57;5.63;;;3.50;;
7929;SDS011;4010;42.698;23.124;2024-02-21T14:06:23;4.60;;;3.43;;
7929;SDS011;4010;42.698;23.124;2024-02-21T14:08:50;3.83;;;3.00;;
7929;SDS011;4010;42.698;23.124;2024-02-21T14:11:18;3.83;;;3.37;;
7929;SDS011;4010;42.698;23.124;2024-02-21T14:13:45;3.50;;;2.57;;
7929;SDS011;4010;42.698;23.124;2024-02-21T14:16:12;3.17;;;2.88;;
7929;SDS011;4010;42.698;23.124;2024-02-21T14:18:39;3.80;;;3.33;;
7929;SDS011;4010;42.698;23.124;2024-02-21T14:21:07;4.47;;;3.30;;
7929;SDS011;4010;42.698;23.124;2024-02-21T14:23:35;3.50;;;3.17;;
7929;SDS011;4010;42.698;23.124;2024-02-21T14:26:02;4.17;;;3.20;;
7929;SDS011;4010;42.698;23.124;2024-02-21T14:28:30;3.83;;;3.20;;
7929;SDS011;4010;42.698;23.124;2024-02-21T14:30:58;4.37;;;3.97;;
7929;SDS011;4010;42.698;23.124;2024-02-21T14:33:25;4.03;;;3.60;;
7929;SDS011;4010;42.698;23.124;2024-02-21T14:35:52;4.73;;;3.83;;
7929;SDS011;4010;42.698;23.124;2024-02-21T14:38:18;5.53;;;3.93;;
7929;SDS011;4010;42.698;23.124;2024-02-21T14:40:45;13.87;;;11.10;;
7929;SDS011;4010;42.698;23.124;2024-02-21T14:43:12;6.40;;;5.00;;
7929;SDS011;4010;42.698;23.124;2024-02-21T14:45:40;8.63;;;7.27;;
7929;SDS011;4010;42.698;23.124;2024-02-21T14:48:08;12.73;;;9.20;;
7929;SDS011;4010;42.698;23.124;2024-02-21T14:50:34;7.90;;;5.30;;
7929;SDS011;4010;42.698;23.124;2024-02-21T14:53:01;5.23;;;4.37;;
7929;SDS011;4010;42.698;23.124;2024-02-21T14:55:28;7.57;;;4.27;;
7929;SDS011;4010;42.698;23.124;2024-02-21T14:57:55;11.77;;;6.83;;
7929;SDS011;4010;42.698;23.124;2024-02-21T15:00:21;4.97;;;4.13;;